createdAt,value
2016-05-20T00:00:14.723Z,1010.66
2016-05-20T00:01:14.726Z,1010.64
2016-05-20T00:02:14.712Z,1010.65
2016-05-20T00:03:14.715Z,1010.64
2016-05-20T00:04:14.717Z,1010.65
2016-05-20T00:05:14.704Z,1010.62
2016-05-20T00:06:14.707Z,1010.64
2016-05-20T00:07:14.710Z,1010.62
2016-05-20T00:08:14.697Z,1010.64
2016-05-20T00:09:14.872Z,1010.62
2016-05-20T00:10:14.687Z,1010.6
2016-05-20T00:11:14.689Z,1010.61
2016-05-20T00:12:14.692Z,1010.6
2016-05-20T00:13:14.694Z,1010.58
2016-05-20T00:14:14.683Z,1010.56
2016-05-20T00:15:14.669Z,1010.55
2016-05-20T00:16:14.672Z,1010.53
2016-05-20T00:17:14.675Z,1010.52
2016-05-20T00:18:14.661Z,1010.51
2016-05-20T00:19:14.664Z,1010.52
2016-05-20T00:20:14.667Z,1010.54
2016-05-20T00:21:14.654Z,1010.56
2016-05-20T00:22:14.657Z,1010.64
2016-05-20T00:23:14.644Z,1010.57
2016-05-20T00:24:14.646Z,1010.56
2016-05-20T00:25:14.649Z,1010.52
2016-05-20T00:26:14.635Z,1010.51
2016-05-20T00:27:14.638Z,1010.53
2016-05-20T00:28:14.626Z,1010.53
2016-05-20T00:29:14.629Z,1010.56
2016-05-20T00:30:14.632Z,1010.52
2016-05-20T00:31:14.618Z,1010.54
2016-05-20T00:32:14.621Z,1010.53
2016-05-20T00:33:14.624Z,1010.55
2016-05-20T00:34:14.612Z,1010.57
2016-05-20T00:35:14.614Z,1010.52
2016-05-20T00:36:14.601Z,1010.58
2016-05-20T00:37:14.603Z,1010.56
2016-05-20T00:38:14.606Z,1010.56
2016-05-20T00:39:14.593Z,1010.56
2016-05-20T00:40:14.595Z,1010.58
2016-05-20T00:41:14.583Z,1010.57
2016-05-20T00:42:14.585Z,1010.54
2016-05-20T00:43:14.588Z,1010.54
2016-05-20T00:44:14.576Z,1010.56
2016-05-20T00:45:14.578Z,1010.53
2016-05-20T00:46:14.562Z,1010.56
2016-05-20T00:47:14.564Z,1010.59
2016-05-20T00:48:14.567Z,1010.62
2016-05-20T00:49:14.570Z,1010.6
2016-05-20T00:50:14.558Z,1010.6
2016-05-20T00:51:14.560Z,1010.59
2016-05-20T00:52:14.547Z,1010.63
2016-05-20T00:53:14.943Z,1010.62
2016-05-20T00:54:14.599Z,1010.57
2016-05-20T00:55:14.540Z,1010.58
2016-05-20T00:56:14.527Z,1010.57
2016-05-20T00:57:14.529Z,1010.54
2016-05-20T00:58:14.532Z,1010.57
2016-05-20T00:59:14.519Z,1010.56
2016-05-20T01:00:14.522Z,1010.55
2016-05-20T01:01:14.962Z,1010.58
2016-05-20T01:02:14.512Z,1010.54
2016-05-20T01:03:14.812Z,1010.56
2016-05-20T01:04:14.502Z,1010.57
2016-05-20T01:05:14.582Z,1010.57
2016-05-20T01:06:14.507Z,1010.59
2016-05-20T01:07:14.493Z,1010.54
2016-05-20T01:08:14.496Z,1010.5
2016-05-20T01:09:14.484Z,1010.55
2016-05-20T01:10:14.486Z,1010.54
2016-05-20T01:11:14.536Z,1010.55
2016-05-20T01:13:14.478Z,1010.59
2016-05-20T01:14:14.482Z,1010.61
2016-05-20T01:15:14.468Z,1010.6
2016-05-20T01:16:14.471Z,1010.63
2016-05-20T01:17:14.458Z,1010.63
2016-05-20T01:18:14.461Z,1010.62
2016-05-20T01:19:14.464Z,1010.6
2016-05-20T01:20:14.450Z,1010.6
2016-05-20T01:21:14.453Z,1010.64
2016-05-20T01:22:14.440Z,1010.62
2016-05-20T01:23:14.443Z,1010.6
2016-05-20T01:24:14.446Z,1010.61
2016-05-20T01:25:14.432Z,1010.6
2016-05-20T01:26:14.435Z,1010.58
2016-05-20T01:27:14.422Z,1010.61
2016-05-20T01:28:14.425Z,1010.57
2016-05-20T01:29:14.428Z,1010.55
2016-05-20T01:30:14.415Z,1010.54
2016-05-20T01:31:14.418Z,1010.55
2016-05-20T01:32:14.421Z,1010.55
2016-05-20T01:33:14.407Z,1010.56
2016-05-20T01:34:14.410Z,1010.5
2016-05-20T01:35:14.398Z,1010.51
2016-05-20T01:36:14.400Z,1010.52
2016-05-20T01:37:14.403Z,1010.55
2016-05-20T01:38:14.390Z,1010.56
2016-05-20T01:39:14.392Z,1010.54
2016-05-20T01:40:14.379Z,1010.56
2016-05-20T01:41:14.397Z,1010.59
2016-05-20T01:42:14.385Z,1010.53
2016-05-20T01:43:14.373Z,1010.59
2016-05-20T01:44:14.374Z,1010.56
2016-05-20T01:45:14.378Z,1010.54
2016-05-20T01:46:14.364Z,1010.6
2016-05-20T01:47:14.367Z,1010.57
2016-05-20T01:48:14.354Z,1010.55
2016-05-20T01:49:14.356Z,1010.57
2016-05-20T01:50:14.359Z,1010.59
2016-05-20T01:51:14.346Z,1010.57
2016-05-20T01:52:14.349Z,1010.53
2016-05-20T01:53:14.352Z,1010.56
2016-05-20T01:54:14.338Z,1010.54
2016-05-20T01:55:14.341Z,1010.55
2016-05-20T01:56:14.329Z,1010.55
2016-05-20T01:57:14.347Z,1010.55
2016-05-20T01:58:14.334Z,1010.52
2016-05-20T01:59:14.321Z,1010.53
2016-05-20T02:00:14.324Z,1010.52
2016-05-20T02:01:14.311Z,1010.56
2016-05-20T02:02:14.313Z,1010.5
2016-05-20T02:03:14.316Z,1010.54
2016-05-20T02:04:14.303Z,1010.56
2016-05-20T02:05:14.306Z,1010.54
2016-05-20T02:06:14.309Z,1010.55
2016-05-20T02:07:14.295Z,1010.51
2016-05-20T02:08:14.298Z,1010.55
2016-05-20T02:10:14.288Z,1010.56
2016-05-20T02:11:14.291Z,1010.53
2016-05-20T02:12:14.279Z,1010.55
2016-05-20T02:13:14.875Z,1010.59
2016-05-20T02:14:14.284Z,1010.56
2016-05-20T02:15:14.270Z,1010.55
2016-05-20T02:16:14.272Z,1010.6
2016-05-20T02:17:14.261Z,1010.59
2016-05-20T02:18:14.606Z,1010.58
2016-05-20T02:20:14.253Z,1010.61
2016-05-20T02:22:15.492Z,1010.61
2016-05-20T02:23:15.135Z,1010.6
2016-05-20T02:24:14.264Z,1010.57
2016-05-20T02:25:14.891Z,1010.56
2016-05-20T02:26:15.019Z,1010.6
2016-05-20T02:27:14.241Z,1010.61
2016-05-20T02:28:14.227Z,1010.65
2016-05-20T02:29:14.230Z,1010.65
2016-05-20T02:30:14.232Z,1010.64
2016-05-20T02:31:14.954Z,1010.65
2016-05-20T02:32:16.051Z,1010.62
2016-05-20T02:33:14.209Z,1010.65
2016-05-20T02:34:14.212Z,1010.65
2016-05-20T02:35:14.495Z,1010.59
2016-05-20T02:36:14.201Z,1010.66
2016-05-20T02:37:14.204Z,1010.69
2016-05-20T02:38:14.363Z,1010.7
2016-05-20T02:39:14.195Z,1010.68
2016-05-20T02:40:14.260Z,1010.7
2016-05-20T02:41:14.246Z,1010.7
2016-05-20T02:42:14.187Z,1010.73
2016-05-20T02:43:14.190Z,1010.73
2016-05-20T02:44:14.176Z,1010.76
2016-05-20T02:45:14.242Z,1010.79
2016-05-20T02:46:14.166Z,1010.78
2016-05-20T02:47:14.169Z,1010.82
2016-05-20T02:48:14.172Z,1010.81
2016-05-20T02:49:14.159Z,1010.81
2016-05-20T02:50:14.161Z,1010.8
2016-05-20T02:51:14.164Z,1010.82
2016-05-20T02:52:14.151Z,1010.85
2016-05-20T02:53:14.154Z,1010.84
2016-05-20T02:54:14.156Z,1010.88
2016-05-20T02:55:14.144Z,1010.88
2016-05-20T02:56:14.147Z,1010.89
2016-05-20T02:57:14.133Z,1010.91
2016-05-20T02:58:14.152Z,1010.9
2016-05-20T02:59:14.138Z,1010.92
2016-05-20T03:00:14.126Z,1010.92
2016-05-20T03:01:14.129Z,1010.91
2016-05-20T03:02:14.132Z,1010.92
2016-05-20T03:03:14.119Z,1010.98
2016-05-20T03:04:14.120Z,1010.97
2016-05-20T03:05:14.124Z,1010.98
2016-05-20T03:06:14.110Z,1010.96
2016-05-20T03:07:14.113Z,1010.98
2016-05-20T03:08:14.101Z,1010.96
2016-05-20T03:09:14.103Z,1010.98
2016-05-20T03:10:14.106Z,1010.98
2016-05-20T03:11:14.093Z,1010.98
2016-05-20T03:12:14.095Z,1010.98
2016-05-20T03:13:14.098Z,1011
2016-05-20T03:14:14.084Z,1011.01
2016-05-20T03:15:14.087Z,1011.03
2016-05-20T03:16:14.076Z,1011.04
2016-05-20T03:17:14.078Z,1011.04
2016-05-20T03:18:14.080Z,1011.05
2016-05-20T03:19:14.084Z,1011.08
2016-05-20T03:20:14.070Z,1011.15
2016-05-20T03:21:14.072Z,1011.15
2016-05-20T03:22:14.060Z,1011.16
2016-05-20T03:23:14.063Z,1011.19
2016-05-20T03:24:14.096Z,1011.18
2016-05-20T03:25:14.052Z,1011.24
2016-05-20T03:26:14.072Z,1011.25
2016-05-20T03:27:14.057Z,1011.27
2016-05-20T03:28:14.044Z,1011.26
2016-05-20T03:29:14.047Z,1011.28
2016-05-20T03:30:14.035Z,1011.29
2016-05-20T03:31:14.038Z,1011.27
2016-05-20T03:32:14.040Z,1011.29
2016-05-20T03:33:14.027Z,1011.31
2016-05-20T03:34:14.029Z,1011.31
2016-05-20T03:35:14.032Z,1011.29
2016-05-20T03:36:14.019Z,1011.31
2016-05-20T03:37:14.021Z,1011.34
2016-05-20T03:38:14.024Z,1011.37
2016-05-20T03:39:14.012Z,1011.35
2016-05-20T03:40:14.015Z,1011.32
2016-05-20T03:41:14.017Z,1011.35
2016-05-20T03:42:14.004Z,1011.39
2016-05-20T03:43:14.007Z,1011.37
2016-05-20T03:44:14.010Z,1011.36
2016-05-20T03:45:13.997Z,1011.37
2016-05-20T03:46:14.000Z,1011.4
2016-05-20T03:47:13.986Z,1011.39
2016-05-20T03:48:13.989Z,1011.39
2016-05-20T03:49:13.991Z,1011.4
2016-05-20T03:50:13.978Z,1011.42
2016-05-20T03:51:13.981Z,1011.43
2016-05-20T03:52:13.984Z,1011.43
2016-05-20T03:53:14.659Z,1011.47
2016-05-20T03:54:14.350Z,1011.49
2016-05-20T03:55:13.977Z,1011.47
2016-05-20T03:56:13.980Z,1011.45
2016-05-20T03:57:13.967Z,1011.51
2016-05-20T03:58:13.969Z,1011.55
2016-05-20T03:59:13.956Z,1011.53
2016-05-20T04:00:13.958Z,1011.52
2016-05-20T04:01:13.961Z,1011.53
2016-05-20T04:02:13.949Z,1011.59
2016-05-20T04:03:13.952Z,1011.56
2016-05-20T04:04:13.954Z,1011.59
2016-05-20T04:05:13.941Z,1011.58
2016-05-20T04:06:13.944Z,1011.59
2016-05-20T04:07:13.947Z,1011.59
2016-05-20T04:08:13.934Z,1011.61
2016-05-20T04:09:13.936Z,1011.61
2016-05-20T04:10:13.940Z,1011.63
2016-05-20T04:11:13.926Z,1011.64
2016-05-20T04:12:14.163Z,1011.61
2016-05-20T04:13:13.931Z,1011.68
2016-05-20T04:14:13.918Z,1011.67
2016-05-20T04:15:13.921Z,1011.66
2016-05-20T04:16:13.924Z,1011.72
2016-05-20T04:17:13.912Z,1011.71
2016-05-20T04:18:13.914Z,1011.7
2016-05-20T04:19:13.917Z,1011.72
2016-05-20T04:20:13.920Z,1011.77
2016-05-20T04:21:13.906Z,1011.8
2016-05-20T04:22:13.909Z,1011.85
2016-05-20T04:23:13.911Z,1011.86
2016-05-20T04:24:13.898Z,1011.85
2016-05-20T04:25:13.901Z,1011.85
2016-05-20T04:26:13.903Z,1011.85
2016-05-20T04:27:13.891Z,1011.92
2016-05-20T04:28:13.893Z,1011.91
2016-05-20T04:29:13.896Z,1011.92
2016-05-20T04:30:13.884Z,1011.96
2016-05-20T04:31:13.902Z,1011.96
2016-05-20T04:32:13.889Z,1011.99
2016-05-20T04:33:13.891Z,1012.03
2016-05-20T04:34:13.879Z,1011.99
2016-05-20T04:35:13.882Z,1012.03
2016-05-20T04:36:13.884Z,1012.04
2016-05-20T04:37:13.871Z,1012.12
2016-05-20T04:38:13.873Z,1012.19
2016-05-20T04:39:13.908Z,1012.27
2016-05-20T04:40:13.864Z,1012.35
2016-05-20T04:41:13.866Z,1012.36
2016-05-20T04:42:13.869Z,1012.34
2016-05-20T04:43:13.871Z,1012.38
2016-05-20T04:44:13.874Z,1012.4
2016-05-20T04:45:13.877Z,1012.42
2016-05-20T04:46:13.864Z,1012.46
2016-05-20T04:47:13.867Z,1012.44
2016-05-20T04:48:13.869Z,1012.38
2016-05-20T04:49:13.872Z,1012.47
2016-05-20T04:50:13.875Z,1012.53
2016-05-20T04:51:13.861Z,1012.61
2016-05-20T04:52:14.318Z,1012.59
2016-05-20T04:53:13.867Z,1012.56
2016-05-20T04:54:14.089Z,1012.6
2016-05-20T04:55:13.873Z,1012.65
2016-05-20T04:56:13.875Z,1012.64
2016-05-20T04:57:13.877Z,1012.67
2016-05-20T04:58:13.880Z,1012.67
2016-05-20T04:59:16.102Z,1012.62
2016-05-20T05:00:13.886Z,1012.56
2016-05-20T05:01:13.888Z,1012.5
2016-05-20T05:02:14.048Z,1012.4
2016-05-20T05:03:13.909Z,1012.37
2016-05-20T05:04:13.912Z,1012.32
2016-05-20T05:05:13.916Z,1012.36
2016-05-20T05:06:14.136Z,1012.37
2016-05-20T05:07:13.921Z,1012.38
2016-05-20T05:08:13.923Z,1012.36
2016-05-20T05:09:13.941Z,1012.32
2016-05-20T05:10:13.944Z,1012.3
2016-05-20T05:11:13.946Z,1012.26
2016-05-20T05:12:13.949Z,1012.35
2016-05-20T05:13:13.951Z,1012.33
2016-05-20T05:14:13.954Z,1012.46
2016-05-20T05:15:13.973Z,1012.41
2016-05-20T05:16:13.976Z,1012.44
2016-05-20T05:17:13.979Z,1012.46
2016-05-20T05:18:13.997Z,1012.4
2016-05-20T05:19:13.984Z,1012.47
2016-05-20T05:20:13.987Z,1012.45
2016-05-20T05:21:13.990Z,1012.49
2016-05-20T05:22:14.008Z,1012.43
2016-05-20T05:23:14.010Z,1012.48
2016-05-20T05:24:14.014Z,1012.42
2016-05-20T05:25:14.016Z,1012.42
2016-05-20T05:26:14.018Z,1012.42
2016-05-20T05:27:14.021Z,1012.45
2016-05-20T05:28:14.024Z,1012.46
2016-05-20T05:29:14.027Z,1012.47
2016-05-20T05:30:14.030Z,1012.48
2016-05-20T05:31:14.032Z,1012.55
2016-05-20T05:32:14.050Z,1012.54
2016-05-20T05:33:14.053Z,1012.55
2016-05-20T05:34:14.041Z,1012.69
2016-05-20T05:35:14.058Z,1013.01
2016-05-20T05:36:14.061Z,1012.85
2016-05-20T05:37:14.063Z,1012.96
2016-05-20T05:38:14.066Z,1013
2016-05-20T05:39:14.069Z,1013.48
2016-05-20T05:40:14.259Z,1013.29
2016-05-20T05:41:14.075Z,1013.71
2016-05-20T05:42:14.077Z,1013.45
2016-05-20T05:43:14.079Z,1013.6
2016-05-20T05:44:14.083Z,1013.19
2016-05-20T05:45:14.084Z,1012.97
2016-05-20T05:46:14.088Z,1012.84
2016-05-20T05:47:14.090Z,1012.87
2016-05-20T05:48:14.109Z,1012.9
2016-05-20T05:49:14.111Z,1013.25
2016-05-20T05:50:14.130Z,1012.98
2016-05-20T05:51:14.117Z,1013.09
2016-05-20T05:52:14.120Z,1013.17
2016-05-20T05:53:14.122Z,1012.9
2016-05-20T05:54:14.140Z,1013.03
2016-05-20T05:55:14.143Z,1012.98
2016-05-20T05:56:14.145Z,1013.02
2016-05-20T05:57:14.149Z,1013.02
2016-05-20T05:58:14.151Z,1013.02
2016-05-20T05:59:14.183Z,1013.04
2016-05-20T06:00:14.230Z,1012.99
2016-05-20T06:01:14.277Z,1013.08
2016-05-20T06:02:14.325Z,1013.17
2016-05-20T06:03:14.372Z,1013.07
2016-05-20T06:04:14.410Z,1013.07
2016-05-20T06:05:15.335Z,1013.38
2016-05-20T06:06:14.917Z,1013.34
2016-05-20T06:07:14.483Z,1013.38
2016-05-20T06:08:14.502Z,1013.21
2016-05-20T06:09:14.533Z,1013.42
2016-05-20T06:10:14.807Z,1013.78
2016-05-20T06:11:14.596Z,1013.89
2016-05-20T06:12:14.558Z,1014.01
2016-05-20T06:13:14.582Z,1014.18
2016-05-20T06:14:15.230Z,1014.17
2016-05-20T06:15:14.594Z,1014.23
2016-05-20T06:16:14.754Z,1014.24
2016-05-20T06:17:14.619Z,1014.25
2016-05-20T06:19:14.644Z,1014.05
2016-05-20T06:20:15.677Z,1013.83
2016-05-20T06:21:15.182Z,1013.74
2016-05-20T06:22:14.669Z,1013.56
2016-05-20T06:23:14.674Z,1013.71
2016-05-20T06:24:14.692Z,1013.83
2016-05-20T06:25:14.710Z,1013.87
2016-05-20T06:26:14.745Z,1013.89
2016-05-20T06:27:14.717Z,1013.84
2016-05-20T06:28:14.736Z,1013.85
2016-05-20T06:29:14.739Z,1013.56
2016-05-20T06:30:14.756Z,1013.37
2016-05-20T06:31:14.759Z,1013.24
2016-05-20T06:32:14.778Z,1013.19
2016-05-20T06:33:14.781Z,1013.18
2016-05-20T06:34:14.939Z,1013.17
2016-05-20T06:35:14.817Z,1013.14
2016-05-20T06:36:14.820Z,1013.36
2016-05-20T06:37:14.823Z,1013.51
2016-05-20T06:38:14.841Z,1013.53
2016-05-20T06:39:14.859Z,1013.23
2016-05-20T06:40:15.394Z,1013.54
2016-05-20T06:41:14.880Z,1013.34
2016-05-20T06:42:14.882Z,1013.31
2016-05-20T06:43:14.902Z,1013.45
2016-05-20T06:44:14.904Z,1013.97
2016-05-20T06:45:14.922Z,1013.57
2016-05-20T06:46:14.924Z,1013.64
2016-05-20T06:47:14.943Z,1013.96
2016-05-20T06:48:14.946Z,1013.98
2016-05-20T06:49:14.964Z,1014.01
2016-05-20T06:50:14.967Z,1013.89
2016-05-20T06:51:14.985Z,1014
2016-05-20T06:52:14.988Z,1014.12
2016-05-20T06:53:15.006Z,1014.08
2016-05-20T06:54:15.009Z,1014.06
2016-05-20T06:55:15.027Z,1014.11
2016-05-20T06:56:15.046Z,1014.17
2016-05-20T06:57:15.064Z,1014.22
2016-05-20T06:58:15.067Z,1014
2016-05-20T06:59:15.085Z,1013.96
2016-05-20T07:00:15.087Z,1013.79
2016-05-20T07:01:15.106Z,1013.71
2016-05-20T07:02:15.125Z,1013.68
2016-05-20T07:03:15.127Z,1014.15
2016-05-20T07:04:15.145Z,1013.98
2016-05-20T07:05:15.163Z,1013.77
2016-05-20T07:06:15.166Z,1014.19
2016-05-20T07:07:15.184Z,1014.32
2016-05-20T07:08:15.203Z,1014.34
2016-05-20T07:09:15.205Z,1014.31
2016-05-20T07:10:15.224Z,1014.35
2016-05-20T07:11:15.242Z,1014.4
2016-05-20T07:12:15.261Z,1014.49
2016-05-20T07:13:15.263Z,1014.54
2016-05-20T07:14:15.297Z,1014.46
2016-05-20T07:15:15.300Z,1014.48
2016-05-20T07:16:15.319Z,1014.52
2016-05-20T07:17:15.336Z,1014.4
2016-05-20T07:18:15.355Z,1014.39
2016-05-20T07:19:15.358Z,1014.45
2016-05-20T07:20:15.376Z,1014.43
2016-05-20T07:21:15.393Z,1014.34
2016-05-20T07:22:15.412Z,1014.06
2016-05-20T07:23:15.431Z,1014.08
2016-05-20T07:24:15.449Z,1014.04
2016-05-20T07:25:16.061Z,1013.78
2016-05-20T07:26:16.126Z,1013.79
2016-05-20T07:27:15.488Z,1013.87
2016-05-20T07:28:15.507Z,1013.92
2016-05-20T07:29:15.525Z,1013.89
2016-05-20T07:30:15.543Z,1013.86
2016-05-20T07:31:15.562Z,1013.92
2016-05-20T07:32:15.581Z,1014.09
2016-05-20T07:33:15.598Z,1014.09
2016-05-20T07:34:15.601Z,1014.02
2016-05-20T07:35:16.120Z,1013.79
2016-05-20T07:36:15.637Z,1013.74
2016-05-20T07:37:15.655Z,1013.64
2016-05-20T07:38:15.674Z,1013.71
2016-05-20T07:39:15.833Z,1013.8
2016-05-20T07:40:15.695Z,1013.74
2016-05-20T07:41:15.713Z,1013.77
2016-05-20T07:42:15.732Z,1014.05
2016-05-20T07:43:15.750Z,1014.06
2016-05-20T07:44:15.753Z,1014.06
2016-05-20T07:45:15.771Z,1014.03
2016-05-20T07:46:15.789Z,1014
2016-05-20T07:47:15.808Z,1013.97
2016-05-20T07:48:15.810Z,1014.1
2016-05-20T07:49:15.829Z,1014.16
2016-05-20T07:50:15.847Z,1014.2
2016-05-20T07:51:15.850Z,1014.29
2016-05-20T07:52:16.635Z,1014.27
2016-05-20T07:53:15.886Z,1014.3
2016-05-20T07:54:15.998Z,1014.28
2016-05-20T07:55:16.470Z,1014.27
2016-05-20T07:56:15.926Z,1014.33
2016-05-20T07:57:15.959Z,1014.3
2016-05-20T07:58:15.962Z,1014.35
2016-05-20T07:59:15.965Z,1014.36
2016-05-20T08:00:15.984Z,1014.39
2016-05-20T08:01:16.001Z,1014.45
2016-05-20T08:02:16.020Z,1014.48
2016-05-20T08:03:16.039Z,1014.46
2016-05-20T08:04:16.056Z,1014.41
2016-05-20T08:05:16.075Z,1014.27
2016-05-20T08:06:16.093Z,1013.86
2016-05-20T08:07:16.095Z,1014.1
2016-05-20T08:08:16.114Z,1014.13
2016-05-20T08:09:16.133Z,1014.2
2016-05-20T08:10:16.151Z,1014.16
2016-05-20T08:11:16.169Z,1014.15
2016-05-20T08:12:16.188Z,1014.42
2016-05-20T08:13:16.206Z,1014.55
2016-05-20T08:14:16.224Z,1013.91
2016-05-20T08:15:16.242Z,1013.88
2016-05-20T08:16:16.261Z,1014.12
2016-05-20T08:17:21.108Z,1014.05
2016-05-20T08:18:16.297Z,1014.08
2016-05-20T08:19:16.316Z,1014.3
2016-05-20T08:20:20.412Z,1014.03
2016-05-20T08:21:16.352Z,1014.12
2016-05-20T08:22:17.324Z,1014.04
2016-05-20T08:23:16.388Z,1013.99
2016-05-20T08:24:16.391Z,1014.09
2016-05-20T08:25:29.035Z,1013.93
2016-05-20T08:26:16.444Z,1013.89
2016-05-20T08:27:16.462Z,1014.14
2016-05-20T08:28:16.465Z,1013.96
2016-05-20T08:29:16.483Z,1013.77
2016-05-20T08:30:20.454Z,1013.84
2016-05-20T08:31:16.520Z,1013.83
2016-05-20T08:32:16.537Z,1013.76
2016-05-20T08:33:16.541Z,1013.79
2016-05-20T08:34:17.434Z,1013.73
2016-05-20T08:35:18.796Z,1013.78
2016-05-20T08:36:16.595Z,1013.76
2016-05-20T08:37:16.614Z,1013.71
2016-05-20T08:38:16.633Z,1013.69
2016-05-20T08:39:16.635Z,1013.66
2016-05-20T08:40:16.653Z,1013.79
2016-05-20T08:41:16.672Z,1013.81
2016-05-20T08:42:16.987Z,1013.92
2016-05-20T08:43:16.709Z,1013.94
2016-05-20T08:44:17.274Z,1013.79
2016-05-20T08:45:16.885Z,1013.62
2016-05-20T08:46:16.747Z,1013.62
2016-05-20T08:47:16.766Z,1013.53
2016-05-20T08:48:16.785Z,1013.53
2016-05-20T08:49:16.788Z,1013.57
2016-05-20T08:50:16.805Z,1013.58
2016-05-20T08:51:16.824Z,1013.55
2016-05-20T08:52:17.092Z,1013.52
2016-05-20T08:53:16.844Z,1013.43
2016-05-20T08:54:16.972Z,1013.37
2016-05-20T08:55:18.178Z,1013.29
2016-05-20T08:56:16.900Z,1013.36
2016-05-20T08:57:16.902Z,1013.32
2016-05-20T08:58:16.920Z,1013.37
2016-05-20T08:59:16.940Z,1013.35
2016-05-20T09:00:16.957Z,1013.29
2016-05-20T09:01:16.960Z,1013.22
2016-05-20T09:02:16.962Z,1013.19
2016-05-20T09:03:16.981Z,1013.21
2016-05-20T09:04:16.999Z,1013.2
2016-05-20T09:05:17.252Z,1013.17
2016-05-20T09:06:17.926Z,1013.18
2016-05-20T09:07:17.038Z,1013.19
2016-05-20T09:08:17.042Z,1013.22
2016-05-20T09:09:17.059Z,1013.24
2016-05-20T09:10:17.078Z,1013.34
2016-05-20T09:11:17.081Z,1013.32
2016-05-20T09:12:17.083Z,1013.36
2016-05-20T09:13:17.102Z,1013.4
2016-05-20T09:14:17.105Z,1013.4
2016-05-20T09:15:17.122Z,1013.38
2016-05-20T09:16:17.125Z,1013.38
2016-05-20T09:17:17.144Z,1013.41
2016-05-20T09:18:17.147Z,1013.32
2016-05-20T09:19:17.181Z,1013.36
2016-05-20T09:20:17.167Z,1013.4
2016-05-20T09:21:17.186Z,1013.4
2016-05-20T09:22:17.188Z,1013.38
2016-05-20T09:23:17.207Z,1013.4
2016-05-20T09:24:17.210Z,1013.36
2016-05-20T09:25:17.227Z,1013.34
2016-05-20T09:26:17.246Z,1013.36
2016-05-20T09:27:17.248Z,1013.28
2016-05-20T09:28:17.252Z,1013.29
2016-05-20T09:29:17.254Z,1013.27
2016-05-20T09:30:17.273Z,1013.23
2016-05-20T09:31:17.276Z,1013.19
2016-05-20T09:32:17.293Z,1013.17
2016-05-20T09:33:17.296Z,1013.14
2016-05-20T09:34:17.315Z,1013.25
2016-05-20T09:35:17.317Z,1013.18
2016-05-20T09:36:17.335Z,1013.12
2016-05-20T09:37:17.337Z,1013.07
2016-05-20T09:38:17.356Z,1013.03
2016-05-20T09:39:17.375Z,1013.09
2016-05-20T09:40:17.361Z,1013.03
2016-05-20T09:41:17.380Z,1012.98
2016-05-20T09:42:17.383Z,1012.99
2016-05-20T09:43:17.386Z,1012.92
2016-05-20T09:44:17.404Z,1012.87
2016-05-20T09:45:17.406Z,1012.89
2016-05-20T09:46:17.425Z,1012.92
2016-05-20T09:47:17.427Z,1012.88
2016-05-20T09:48:17.430Z,1012.83
2016-05-20T09:49:17.886Z,1012.77
2016-05-20T09:50:17.452Z,1012.73
2016-05-20T09:51:17.766Z,1012.76
2016-05-20T09:52:17.472Z,1012.76
2016-05-20T09:53:17.491Z,1012.7
2016-05-20T09:54:18.024Z,1012.72
2016-05-20T09:55:17.496Z,1012.69
2016-05-20T09:56:17.498Z,1012.63
2016-05-20T09:57:17.502Z,1012.69
2016-05-20T09:58:17.519Z,1012.68
2016-05-20T09:59:17.521Z,1012.58
2016-05-20T10:00:17.540Z,1012.65
2016-05-20T10:01:17.543Z,1012.67
2016-05-20T10:02:17.546Z,1012.61
2016-05-20T10:04:17.989Z,1012.54
2016-05-20T10:05:17.820Z,1012.46
2016-05-20T10:06:17.588Z,1012.52
2016-05-20T10:07:17.591Z,1012.59
2016-05-20T10:08:17.593Z,1012.59
2016-05-20T10:09:17.596Z,1012.61
2016-05-20T10:10:18.051Z,1012.62
2016-05-20T10:11:17.617Z,1012.69
2016-05-20T10:12:17.714Z,1012.64
2016-05-20T10:13:17.731Z,1012.61
2016-05-20T10:14:17.641Z,1012.6
2016-05-20T10:15:18.097Z,1012.63
2016-05-20T10:16:17.646Z,1012.66
2016-05-20T10:17:17.649Z,1012.62
2016-05-20T10:18:17.667Z,1012.58
2016-05-20T10:19:17.966Z,1012.59
2016-05-20T10:20:17.672Z,1012.58
2016-05-20T10:21:17.675Z,1012.62
2016-05-20T10:22:17.677Z,1012.55
2016-05-20T10:23:17.696Z,1012.55
2016-05-20T10:24:19.777Z,1012.65
2016-05-20T10:26:17.704Z,1012.71
2016-05-20T10:27:17.722Z,1012.65
2016-05-20T10:28:17.724Z,1012.67
2016-05-20T10:29:17.727Z,1012.63
2016-05-20T10:30:17.730Z,1012.61
2016-05-20T10:31:17.749Z,1012.67
2016-05-20T10:32:17.767Z,1012.72
2016-05-20T10:33:17.754Z,1012.69
2016-05-20T10:34:17.773Z,1012.8
2016-05-20T10:35:17.776Z,1012.78
2016-05-20T10:36:17.778Z,1012.71
2016-05-20T10:37:17.781Z,1012.77
2016-05-20T10:38:17.799Z,1012.8
2016-05-20T10:39:17.801Z,1012.75
2016-05-20T10:40:18.226Z,1012.76
2016-05-20T10:41:17.807Z,1012.74
2016-05-20T10:42:17.825Z,1012.74
2016-05-20T10:43:17.829Z,1012.73
2016-05-20T10:44:17.830Z,1012.79
2016-05-20T10:45:17.850Z,1012.88
2016-05-20T10:46:17.853Z,1012.77
2016-05-20T10:47:17.855Z,1012.75
2016-05-20T10:48:17.873Z,1012.69
2016-05-20T10:49:17.876Z,1012.75
2016-05-20T10:50:17.878Z,1012.7
2016-05-20T10:51:17.896Z,1012.79
2016-05-20T10:52:17.915Z,1012.72
2016-05-20T10:53:17.917Z,1012.74
2016-05-20T10:54:17.920Z,1012.75
2016-05-20T10:55:17.922Z,1012.75
2016-05-20T10:56:17.925Z,1012.83
2016-05-20T10:57:17.944Z,1012.78
2016-05-20T10:58:17.947Z,1012.81
2016-05-20T10:59:18.028Z,1012.89
2016-05-20T11:00:17.967Z,1012.92
2016-05-20T11:01:18.032Z,1012.91
2016-05-20T11:02:17.973Z,1012.91
2016-05-20T11:03:17.991Z,1012.79
2016-05-20T11:04:17.994Z,1012.72
2016-05-20T11:05:18.059Z,1012.71
2016-05-20T11:06:18.031Z,1012.77
2016-05-20T11:07:18.018Z,1012.83
2016-05-20T11:08:18.036Z,1012.85
2016-05-20T11:09:18.039Z,1012.83
2016-05-20T11:10:18.292Z,1012.91
2016-05-20T11:11:18.060Z,1012.92
2016-05-20T11:12:18.063Z,1012.89
2016-05-20T11:13:18.081Z,1012.86
2016-05-20T11:14:18.083Z,1012.84
2016-05-20T11:15:18.086Z,1012.87
2016-05-20T11:16:18.104Z,1012.82
2016-05-20T11:17:18.107Z,1012.79
2016-05-20T11:18:18.109Z,1012.73
2016-05-20T11:19:19.191Z,1012.74
2016-05-20T11:20:18.131Z,1012.73
2016-05-20T11:21:18.742Z,1012.75
2016-05-20T11:22:18.152Z,1012.64
2016-05-20T11:23:18.169Z,1012.8
2016-05-20T11:24:18.172Z,1012.74
2016-05-20T11:25:18.175Z,1012.69
2016-05-20T11:26:18.178Z,1012.64
2016-05-20T11:27:18.196Z,1012.67
2016-05-20T11:28:18.199Z,1012.66
2016-05-20T11:29:18.202Z,1012.63
2016-05-20T11:30:18.221Z,1012.6
2016-05-20T11:32:18.226Z,1012.6
2016-05-20T11:33:19.572Z,1012.6
2016-05-20T11:34:18.246Z,1012.63
2016-05-20T11:35:18.249Z,1012.69
2016-05-20T11:36:18.268Z,1012.66
2016-05-20T11:37:18.754Z,1012.72
2016-05-20T11:38:18.288Z,1012.75
2016-05-20T11:39:18.290Z,1012.72
2016-05-20T11:40:18.309Z,1012.73
2016-05-20T11:41:18.312Z,1012.82
2016-05-20T11:43:18.317Z,1012.83
2016-05-20T11:44:18.321Z,1012.91
2016-05-20T11:45:18.339Z,1012.87
2016-05-20T11:46:18.919Z,1012.77
2016-05-20T11:47:18.344Z,1012.71
2016-05-20T11:48:18.362Z,1012.64
2016-05-20T11:49:18.365Z,1012.7
2016-05-20T11:50:18.383Z,1012.66
2016-05-20T11:51:18.387Z,1012.55
2016-05-20T11:52:18.404Z,1012.49
2016-05-20T11:53:18.407Z,1012.48
2016-05-20T11:54:18.410Z,1012.47
2016-05-20T11:55:18.569Z,1012.43
2016-05-20T11:56:18.416Z,1012.54
2016-05-20T11:57:18.433Z,1012.47
2016-05-20T11:58:18.436Z,1012.48
2016-05-20T11:59:18.439Z,1012.57
2016-05-20T12:00:18.457Z,1012.6
2016-05-20T12:01:18.460Z,1012.55
2016-05-20T12:02:18.463Z,1012.5
2016-05-20T12:03:18.480Z,1012.48
2016-05-20T12:04:18.483Z,1012.45
2016-05-20T12:05:18.486Z,1012.42
2016-05-20T12:06:18.504Z,1012.42
2016-05-20T12:07:18.507Z,1012.38
2016-05-20T12:08:18.509Z,1012.36
2016-05-20T12:09:18.513Z,1012.33
2016-05-20T12:10:18.609Z,1012.33
2016-05-20T12:11:18.534Z,1012.4
2016-05-20T12:12:18.537Z,1012.37
2016-05-20T12:13:18.555Z,1012.43
2016-05-20T12:14:18.557Z,1012.35
2016-05-20T12:15:18.575Z,1012.32
2016-05-20T12:16:18.578Z,1012.34
2016-05-20T12:17:18.581Z,1012.36